レゾリュート の空港の天気 - METARとTAF

レゾリュート空港 ( CYRB / YRB ) - カナダ ヌナブト準州レゾリュート
飛行場実況気象(Metar)
観測時間05/26 18:00 CDT (05/26 23:00 UTC)
風向・風速北 7m/s
視程10km以上
天気現象弱い雪
全天を覆う雲 雲底高度 880m
気温-5℃
湿度86%
気圧1009.4hPa
METARCYRB 262300Z 01014KT 9SM -SN OVC029 M05/M07 A2978 RMK SC8 SLP094
過去の天気等 Google飛行場航空写真 Wunderground天気予報

過去48時間のMETAR

飛行場予報(TAF)
発表時間: 5/26 18:38 CDT (5/26 23:38 UTC)
予報対象時間: 26日19時 CDT ~ 27日19時 CDT
風向・風速北北西 5m/s
視程10km以上
天気現象弱い雪
全天を覆う雲 雲底高度 910m
26日19時 CDT ~ 27日10時 CDT に一時的に
視程8050m
天気現象弱い雪
全天の4割程度の雲 雲底高度 240m
全天を覆う雲 雲底高度 610m
27日1時 CDT から 確率 30% で
視程8050m
天気現象弱い氷霧雨 もや
27日10時 CDT から
風向・風速北北西 8m/s
視程10km以上
天気現象弱い雪
全天の4割程度の雲 雲底高度 240m
全天の8割程度の雲 雲底高度 370m
全天を覆う雲 雲底高度 910m
TAF CYRB 262338Z 2700/2724 33010KT P6SM -SN OVC030
TEMPO 2700/2715 5SM -SN SCT008 OVC020
PROB30 2706/2714 5SM -FZDZ BR
FM271500 34015KT P6SM -SN SCT008 BKN012 OVC030 RMK NXT FCST BY 270600Z